createdAt,value
2019-06-10T00:00:21.822Z,18.01
2019-06-10T00:01:21.332Z,17.98
2019-06-10T00:02:21.363Z,18.01
2019-06-10T00:03:20.767Z,18.02
2019-06-10T00:04:22.151Z,17.98
2019-06-10T00:05:21.608Z,17.99
2019-06-10T00:06:21.061Z,18.07
2019-06-10T00:07:21.086Z,18.10
2019-06-10T00:08:21.001Z,18.11
2019-06-10T00:09:21.222Z,18.13
2019-06-10T00:10:21.473Z,18.16
2019-06-10T00:11:21.320Z,18.16
2019-06-10T00:12:21.069Z,18.10
2019-06-10T00:13:21.018Z,18.11
2019-06-10T00:14:21.253Z,18.19
2019-06-10T00:15:21.360Z,18.23
2019-06-10T00:16:20.954Z,18.21
2019-06-10T00:17:21.368Z,18.14
2019-06-10T00:18:35.536Z,18.21
2019-06-10T00:19:21.886Z,18.19
2019-06-10T00:20:21.591Z,18.17
2019-06-10T00:21:21.761Z,18.07
2019-06-10T00:22:21.561Z,17.99
2019-06-10T00:23:21.288Z,17.98
2019-06-10T00:24:21.151Z,18.04
2019-06-10T00:25:20.984Z,17.95
2019-06-10T00:26:21.608Z,17.98
2019-06-10T00:27:21.601Z,17.99
2019-06-10T00:28:21.750Z,18.01
2019-06-10T00:29:22.197Z,17.95
2019-06-10T00:30:20.821Z,17.94
2019-06-10T00:31:20.760Z,17.92
2019-06-10T00:32:21.499Z,18.01
2019-06-10T00:33:21.608Z,17.96
2019-06-10T00:34:20.916Z,17.96
2019-06-10T00:35:21.077Z,17.96
2019-06-10T00:36:21.544Z,18.02
2019-06-10T00:37:21.177Z,17.96
2019-06-10T00:38:21.422Z,17.95
2019-06-10T00:39:22.165Z,17.98
2019-06-10T00:40:21.440Z,17.96
2019-06-10T00:41:21.973Z,17.98
2019-06-10T00:42:21.337Z,17.99
2019-06-10T00:43:21.372Z,17.95
2019-06-10T00:44:20.667Z,17.92
2019-06-10T00:45:21.651Z,17.87
2019-06-10T00:46:21.204Z,17.89
2019-06-10T00:47:21.168Z,17.92
2019-06-10T00:48:26.171Z,17.94
2019-06-10T00:49:21.444Z,17.86
2019-06-10T00:50:21.715Z,17.86
2019-06-10T00:51:20.967Z,17.91
2019-06-10T00:52:21.333Z,17.80
2019-06-10T00:53:21.093Z,17.92
2019-06-10T00:54:21.862Z,17.84
2019-06-10T00:55:21.156Z,17.81
2019-06-10T00:56:21.541Z,17.84
2019-06-10T00:57:20.941Z,17.81
2019-06-10T00:58:21.611Z,17.79
2019-06-10T00:59:22.016Z,17.74
2019-06-10T01:00:25.534Z,17.76
2019-06-10T01:01:21.985Z,17.65
2019-06-10T01:02:21.402Z,17.71
2019-06-10T01:03:20.960Z,17.66
2019-06-10T01:04:21.663Z,17.71
2019-06-10T01:05:20.765Z,17.65
2019-06-10T01:06:21.374Z,17.62
2019-06-10T01:07:21.849Z,17.65
2019-06-10T01:08:21.469Z,17.55
2019-06-10T01:09:21.857Z,17.62
2019-06-10T01:10:21.046Z,17.54
2019-06-10T01:11:26.437Z,17.47
2019-06-10T01:12:21.171Z,17.51
2019-06-10T01:13:20.780Z,17.45
2019-06-10T01:14:21.571Z,17.45
2019-06-10T01:15:21.856Z,17.38
2019-06-10T01:16:21.646Z,17.39
2019-06-10T01:17:21.351Z,17.42
2019-06-10T01:18:34.643Z,17.33
2019-06-10T01:19:21.853Z,17.45
2019-06-10T01:20:21.076Z,17.38
2019-06-10T01:21:21.861Z,17.35
2019-06-10T01:22:21.313Z,17.39
2019-06-10T01:23:21.866Z,17.33
2019-06-10T01:24:22.101Z,17.33
2019-06-10T01:25:21.652Z,17.32
2019-06-10T01:26:21.570Z,17.30
2019-06-10T01:27:21.203Z,17.24
2019-06-10T01:28:22.083Z,17.28
2019-06-10T01:29:20.976Z,17.22
2019-06-10T01:30:24.540Z,17.20
2019-06-10T01:31:24.117Z,17.12
2019-06-10T01:32:21.701Z,17.18
2019-06-10T01:33:21.212Z,17.09
2019-06-10T01:34:21.813Z,17.06
2019-06-10T01:35:21.073Z,17.07
2019-06-10T01:36:21.106Z,17.07
2019-06-10T01:37:21.866Z,17.06
2019-06-10T01:38:21.091Z,17.12
2019-06-10T01:39:19.593Z,17.00
2019-06-10T01:40:20.903Z,16.98
2019-06-10T01:41:21.465Z,17.06
2019-06-10T01:42:21.461Z,17.05
2019-06-10T01:43:21.446Z,16.98
2019-06-10T01:44:21.877Z,17.00
2019-06-10T01:45:21.254Z,16.96
2019-06-10T01:46:21.177Z,16.90
2019-06-10T01:47:21.425Z,16.81
2019-06-10T01:48:20.945Z,16.81
2019-06-10T01:49:21.342Z,16.73
2019-06-10T01:50:21.632Z,16.78
2019-06-10T01:51:21.338Z,16.82
2019-06-10T01:52:21.197Z,16.78
2019-06-10T01:53:21.438Z,16.73
2019-06-10T01:54:21.343Z,16.77
2019-06-10T01:55:21.634Z,16.77
2019-06-10T01:56:21.456Z,16.73
2019-06-10T01:57:21.249Z,16.77
2019-06-10T01:58:23.299Z,16.72
2019-06-10T01:59:22.066Z,16.69
2019-06-10T02:00:25.104Z,16.65
2019-06-10T02:01:23.310Z,16.65
2019-06-10T02:02:21.142Z,16.69
2019-06-10T02:03:23.686Z,16.72
2019-06-10T02:04:22.090Z,16.84
2019-06-10T02:05:20.263Z,16.82
2019-06-10T02:06:22.110Z,16.87
2019-06-10T02:07:22.917Z,16.81
2019-06-10T02:08:21.968Z,16.80
2019-06-10T02:09:22.820Z,16.66
2019-06-10T02:10:22.371Z,16.69
2019-06-10T02:11:23.510Z,16.77
2019-06-10T02:12:23.695Z,16.63
2019-06-10T02:13:21.658Z,16.60
2019-06-10T02:14:23.194Z,16.55
2019-06-10T02:15:22.490Z,16.63
2019-06-10T02:16:20.996Z,16.54
2019-06-10T02:17:23.531Z,16.59
2019-06-10T02:18:22.377Z,16.55
2019-06-10T02:19:22.742Z,16.63
2019-06-10T02:20:22.567Z,16.60
2019-06-10T02:21:22.576Z,16.62
2019-06-10T02:22:23.919Z,16.63
2019-06-10T02:23:21.907Z,16.66
2019-06-10T02:24:19.724Z,16.60
2019-06-10T02:25:21.380Z,16.66
2019-06-10T02:26:19.886Z,16.67
2019-06-10T02:27:21.484Z,16.66
2019-06-10T02:28:19.734Z,16.59
2019-06-10T02:29:21.759Z,16.62
2019-06-10T02:30:36.466Z,16.67
2019-06-10T02:31:30.459Z,16.54
2019-06-10T02:32:30.731Z,16.66
2019-06-10T02:33:27.868Z,16.60
2019-06-10T02:34:26.435Z,16.65
2019-06-10T02:35:30.639Z,16.63
2019-06-10T02:36:27.809Z,16.65
2019-06-10T02:37:22.479Z,16.69
2019-06-10T02:38:28.079Z,16.67
2019-06-10T02:39:26.378Z,16.62
2019-06-10T02:40:28.239Z,16.75
2019-06-10T02:41:26.186Z,16.75
2019-06-10T02:42:22.304Z,16.70
2019-06-10T02:43:23.932Z,16.70
2019-06-10T02:44:26.428Z,16.81
2019-06-10T02:45:30.715Z,16.85
2019-06-10T02:46:24.538Z,16.80
2019-06-10T02:47:23.871Z,16.82
2019-06-10T02:48:23.718Z,16.75
2019-06-10T02:49:35.132Z,16.80
2019-06-10T02:50:25.868Z,16.75
2019-06-10T02:51:22.187Z,16.70
2019-06-10T02:52:23.296Z,16.60
2019-06-10T02:53:21.079Z,16.62
2019-06-10T02:54:20.805Z,16.66
2019-06-10T02:55:22.857Z,16.62
2019-06-10T02:56:21.748Z,16.60
2019-06-10T02:57:24.660Z,16.59
2019-06-10T02:58:24.200Z,16.59
2019-06-10T02:59:21.570Z,16.62
2019-06-10T03:00:26.778Z,16.62
2019-06-10T03:01:21.706Z,16.66
2019-06-10T03:02:20.779Z,16.62
2019-06-10T03:03:25.918Z,16.59
2019-06-10T03:04:22.178Z,16.65
2019-06-10T03:05:24.897Z,16.63
2019-06-10T03:06:23.507Z,16.69
2019-06-10T03:07:21.139Z,16.73
2019-06-10T03:08:20.552Z,16.66
2019-06-10T03:09:20.472Z,16.66
2019-06-10T03:10:21.118Z,16.66
2019-06-10T03:11:20.708Z,16.66
2019-06-10T03:12:19.703Z,16.65
2019-06-10T03:13:19.685Z,16.60
2019-06-10T03:14:19.679Z,16.62
2019-06-10T03:15:19.853Z,16.55
2019-06-10T03:16:19.841Z,16.60
2019-06-10T03:17:18.469Z,16.62
2019-06-10T03:18:18.458Z,16.65
2019-06-10T03:19:37.074Z,16.72
2019-06-10T03:20:20.001Z,16.70
2019-06-10T03:21:18.456Z,16.66
2019-06-10T03:22:18.411Z,16.65
2019-06-10T03:23:18.401Z,16.70
2019-06-10T03:24:19.152Z,16.63
2019-06-10T03:25:18.397Z,16.63
2019-06-10T03:26:19.251Z,16.55
2019-06-10T03:27:18.424Z,16.54
2019-06-10T03:28:19.423Z,16.62
2019-06-10T03:29:18.571Z,16.62
2019-06-10T03:30:26.821Z,16.55
2019-06-10T03:31:22.081Z,16.57
2019-06-10T03:32:22.101Z,16.55
2019-06-10T03:33:20.830Z,16.60
2019-06-10T03:34:21.888Z,16.63
2019-06-10T03:35:19.376Z,16.72
2019-06-10T03:36:18.288Z,16.67
2019-06-10T03:37:18.358Z,16.72
2019-06-10T03:38:18.286Z,16.73
2019-06-10T03:39:18.649Z,16.65
2019-06-10T03:40:18.548Z,16.72
2019-06-10T03:41:18.585Z,16.69
2019-06-10T03:42:18.804Z,16.72
2019-06-10T03:43:18.752Z,16.72
2019-06-10T03:44:18.920Z,16.69
2019-06-10T03:45:19.204Z,16.75
2019-06-10T03:46:19.052Z,16.69
2019-06-10T03:47:19.107Z,16.69
2019-06-10T03:48:19.082Z,16.72
2019-06-10T03:49:19.134Z,16.75
2019-06-10T03:50:19.232Z,16.73
2019-06-10T03:51:19.204Z,16.65
2019-06-10T03:52:19.290Z,16.78
2019-06-10T03:53:19.109Z,16.70
2019-06-10T03:54:19.193Z,16.75
2019-06-10T03:55:19.224Z,16.75
2019-06-10T03:56:19.089Z,16.63
2019-06-10T03:57:19.143Z,16.78
2019-06-10T03:58:19.874Z,16.69
2019-06-10T03:59:19.159Z,16.70
2019-06-10T04:00:19.405Z,16.70
2019-06-10T04:01:19.362Z,16.65
2019-06-10T04:02:19.318Z,16.69
2019-06-10T04:03:17.953Z,16.75
2019-06-10T04:04:17.942Z,16.70
2019-06-10T04:05:17.930Z,16.60
2019-06-10T04:06:17.920Z,16.65
2019-06-10T04:07:18.099Z,16.72
2019-06-10T04:08:17.897Z,16.63
2019-06-10T04:09:17.900Z,16.72
2019-06-10T04:10:17.876Z,16.67
2019-06-10T04:11:17.864Z,16.69
2019-06-10T04:12:17.884Z,16.72
2019-06-10T04:13:17.841Z,16.66
2019-06-10T04:14:17.830Z,16.63
2019-06-10T04:15:17.819Z,16.69
2019-06-10T04:16:17.817Z,16.66
2019-06-10T04:17:17.829Z,16.70
2019-06-10T04:18:17.957Z,16.66
2019-06-10T04:19:17.776Z,16.69
2019-06-10T04:20:17.850Z,16.69
2019-06-10T04:21:17.764Z,16.67
2019-06-10T04:22:17.744Z,16.63
2019-06-10T04:23:17.764Z,16.69
2019-06-10T04:24:17.722Z,16.59
2019-06-10T04:25:17.851Z,16.65
2019-06-10T04:26:17.841Z,16.65
2019-06-10T04:27:17.738Z,16.69
2019-06-10T04:28:17.809Z,16.77
2019-06-10T04:29:17.920Z,16.75
2019-06-10T04:30:18.242Z,16.62
2019-06-10T04:31:18.194Z,16.70
2019-06-10T04:32:18.215Z,16.70
2019-06-10T04:33:18.366Z,16.78
2019-06-10T04:34:18.342Z,16.70
2019-06-10T04:35:18.348Z,16.67
2019-06-10T04:36:18.329Z,16.72
2019-06-10T04:37:18.375Z,16.67
2019-06-10T04:38:18.338Z,16.69
2019-06-10T04:39:18.458Z,16.66
2019-06-10T04:40:18.418Z,16.69
2019-06-10T04:41:18.343Z,16.67
2019-06-10T04:42:18.343Z,16.75
2019-06-10T04:43:18.409Z,16.78
2019-06-10T04:44:18.552Z,16.77
2019-06-10T04:45:18.690Z,16.77
2019-06-10T04:46:18.588Z,16.67
2019-06-10T04:47:18.523Z,16.73
2019-06-10T04:48:18.526Z,16.78
2019-06-10T04:49:18.686Z,16.70
2019-06-10T04:50:25.039Z,16.67
2019-06-10T04:51:18.695Z,16.78
2019-06-10T04:52:18.460Z,16.72
2019-06-10T04:53:18.596Z,16.73
2019-06-10T04:54:18.471Z,16.75
2019-06-10T04:55:18.716Z,16.80
2019-06-10T04:56:17.365Z,16.78
2019-06-10T04:57:17.351Z,16.82
2019-06-10T04:58:17.374Z,16.77
2019-06-10T04:59:17.335Z,16.87
2019-06-10T05:00:17.323Z,16.91
2019-06-10T05:01:17.311Z,16.95
2019-06-10T05:02:17.297Z,16.84
2019-06-10T05:03:17.316Z,16.88
2019-06-10T05:04:17.274Z,16.88
2019-06-10T05:05:17.262Z,16.90
2019-06-10T05:06:17.250Z,16.95
2019-06-10T05:07:17.240Z,16.98
2019-06-10T05:08:17.261Z,16.95
2019-06-10T05:09:17.218Z,17.06
2019-06-10T05:10:17.206Z,17.00
2019-06-10T05:11:17.196Z,17.00
2019-06-10T05:12:17.186Z,17.03
2019-06-10T05:13:17.175Z,17.02
2019-06-10T05:14:17.197Z,17.07
2019-06-10T05:15:17.150Z,16.99
2019-06-10T05:16:17.143Z,17.10
2019-06-10T05:17:17.130Z,17.05
2019-06-10T05:18:17.148Z,17.14
2019-06-10T05:19:17.106Z,17.17
2019-06-10T05:20:17.095Z,17.15
2019-06-10T05:21:17.084Z,17.21
2019-06-10T05:22:17.075Z,17.21
2019-06-10T05:23:17.063Z,17.27
2019-06-10T05:24:17.082Z,17.32
2019-06-10T05:25:17.040Z,17.30
2019-06-10T05:26:17.031Z,17.40
2019-06-10T05:27:17.019Z,17.43
2019-06-10T05:28:17.006Z,17.46
2019-06-10T05:29:17.031Z,17.46
2019-06-10T05:30:16.988Z,17.47
2019-06-10T05:31:16.978Z,17.54
2019-06-10T05:32:16.962Z,17.47
2019-06-10T05:33:16.954Z,17.46
2019-06-10T05:34:16.971Z,17.46
2019-06-10T05:35:16.935Z,17.55
2019-06-10T05:36:16.917Z,17.53
2019-06-10T05:37:16.908Z,17.65
2019-06-10T05:38:16.896Z,17.51
2019-06-10T05:39:16.917Z,17.51
2019-06-10T05:40:16.872Z,17.51
2019-06-10T05:41:16.861Z,17.54
2019-06-10T05:42:16.851Z,17.43
2019-06-10T05:43:16.841Z,17.53
2019-06-10T05:44:16.865Z,17.55
2019-06-10T05:45:16.818Z,17.66
2019-06-10T05:46:16.806Z,17.66
2019-06-10T05:47:16.797Z,17.68
2019-06-10T05:48:16.962Z,17.66
2019-06-10T05:49:16.805Z,17.62
2019-06-10T05:50:16.762Z,17.66
2019-06-10T05:51:16.751Z,17.79
2019-06-10T05:52:16.740Z,17.79
2019-06-10T05:53:16.731Z,17.68
2019-06-10T05:54:16.748Z,17.83
2019-06-10T05:55:16.706Z,17.86
2019-06-10T05:56:16.696Z,17.91
2019-06-10T05:57:16.688Z,17.92
2019-06-10T05:58:16.681Z,17.89
2019-06-10T05:59:16.666Z,17.98
2019-06-10T06:00:16.683Z,17.91
2019-06-10T06:01:16.640Z,17.95
2019-06-10T06:02:16.630Z,17.95
2019-06-10T06:03:16.616Z,18.05
2019-06-10T06:04:16.607Z,17.98
2019-06-10T06:05:16.627Z,17.99
2019-06-10T06:06:16.584Z,18.02
2019-06-10T06:07:16.573Z,18.05
2019-06-10T06:08:16.561Z,18.01
2019-06-10T06:09:16.552Z,18.16
2019-06-10T06:10:16.571Z,18.19
2019-06-10T06:11:16.532Z,18.14
2019-06-10T06:12:16.516Z,18.10
2019-06-10T06:13:16.506Z,18.16
2019-06-10T06:14:16.494Z,18.11
2019-06-10T06:15:16.517Z,18.14
2019-06-10T06:16:16.472Z,18.11
2019-06-10T06:17:16.841Z,18.14
2019-06-10T06:18:16.450Z,18.11
2019-06-10T06:19:16.448Z,18.13
2019-06-10T06:20:16.460Z,18.11
2019-06-10T06:21:25.499Z,18.10
2019-06-10T06:22:17.405Z,18.14
2019-06-10T06:23:16.403Z,18.09
2019-06-10T06:24:16.405Z,18.21
2019-06-10T06:25:16.423Z,18.14
2019-06-10T06:26:16.831Z,18.20
2019-06-10T06:27:16.350Z,18.20
2019-06-10T06:28:16.393Z,18.21
2019-06-10T06:29:16.326Z,18.17
2019-06-10T06:30:18.917Z,18.17
2019-06-10T06:31:16.305Z,18.23
2019-06-10T06:32:16.296Z,18.21
2019-06-10T06:33:16.283Z,18.26
2019-06-10T06:34:16.279Z,18.23
2019-06-10T06:35:16.294Z,18.25
2019-06-10T06:36:16.251Z,18.25
2019-06-10T06:37:16.240Z,18.26
2019-06-10T06:38:16.229Z,18.25
2019-06-10T06:39:16.220Z,18.32
2019-06-10T06:40:16.236Z,18.36
2019-06-10T06:41:16.198Z,18.39
2019-06-10T06:42:16.184Z,18.50
2019-06-10T06:43:16.172Z,18.41
2019-06-10T06:44:16.162Z,18.49
2019-06-10T06:45:16.179Z,18.50
2019-06-10T06:46:16.140Z,18.56
2019-06-10T06:47:16.128Z,18.50
2019-06-10T06:48:16.115Z,18.56
2019-06-10T06:49:16.104Z,18.60
2019-06-10T06:50:16.097Z,18.59
2019-06-10T06:51:16.113Z,18.65
2019-06-10T06:52:16.072Z,18.72
2019-06-10T06:53:24.585Z,18.65
2019-06-10T06:54:17.053Z,18.72
2019-06-10T06:55:16.038Z,18.66
2019-06-10T06:56:16.067Z,18.62
2019-06-10T06:57:16.015Z,18.69
2019-06-10T06:58:16.005Z,18.74
2019-06-10T06:59:16.001Z,18.66
2019-06-10T07:00:38.287Z,18.62
2019-06-10T07:01:17.000Z,18.64
2019-06-10T07:02:15.961Z,18.62
2019-06-10T07:03:15.949Z,18.71
2019-06-10T07:04:15.939Z,18.71
2019-06-10T07:05:15.925Z,18.75
2019-06-10T07:06:15.948Z,18.74
2019-06-10T07:07:15.907Z,18.65
2019-06-10T07:08:15.893Z,18.76
2019-06-10T07:09:15.883Z,18.78
2019-06-10T07:10:15.872Z,18.75
2019-06-10T07:11:15.891Z,18.68
2019-06-10T07:12:15.852Z,18.76
2019-06-10T07:13:15.838Z,18.75
2019-06-10T07:14:15.828Z,18.82
2019-06-10T07:15:15.816Z,18.75
2019-06-10T07:16:15.834Z,18.82
2019-06-10T07:17:15.793Z,18.84
2019-06-10T07:18:15.781Z,18.86
2019-06-10T07:19:15.770Z,18.82
2019-06-10T07:20:15.761Z,18.89
2019-06-10T07:21:15.783Z,18.83
2019-06-10T07:22:16.310Z,18.84
2019-06-10T07:23:15.728Z,18.86
2019-06-10T07:24:15.716Z,18.89
2019-06-10T07:25:15.707Z,18.91
2019-06-10T07:26:15.730Z,18.89
2019-06-10T07:27:15.682Z,18.86
2019-06-10T07:28:15.672Z,18.86
2019-06-10T07:29:15.661Z,18.87
2019-06-10T07:30:15.649Z,18.87
2019-06-10T07:31:23.308Z,18.97
2019-06-10T07:32:16.624Z,19.02
2019-06-10T07:33:15.614Z,19.07
2019-06-10T07:34:15.604Z,19.05
2019-06-10T07:35:15.592Z,19.15
2019-06-10T07:36:15.583Z,19.17
2019-06-10T07:37:15.601Z,19.31
2019-06-10T07:38:15.562Z,19.30
2019-06-10T07:39:15.548Z,19.46
2019-06-10T07:40:15.566Z,19.45
2019-06-10T07:41:15.529Z,19.46
2019-06-10T07:42:15.548Z,19.47
2019-06-10T07:43:15.515Z,19.52
2019-06-10T07:44:15.493Z,19.53
2019-06-10T07:45:15.482Z,19.52
2019-06-10T07:46:15.469Z,19.49
2019-06-10T07:47:15.491Z,19.58
2019-06-10T07:48:15.449Z,19.61
2019-06-10T07:49:15.435Z,19.62
2019-06-10T07:50:15.427Z,19.61
2019-06-10T07:51:15.418Z,19.71
2019-06-10T07:52:19.847Z,19.76
2019-06-10T07:53:15.397Z,19.71
2019-06-10T07:54:15.383Z,19.78
2019-06-10T07:55:15.368Z,19.80
2019-06-10T07:56:15.359Z,19.82
2019-06-10T07:57:15.382Z,19.85
2019-06-10T07:58:15.339Z,19.86
2019-06-10T07:59:15.325Z,19.90
2019-06-10T08:00:15.314Z,19.98
2019-06-10T08:01:15.303Z,20.00
2019-06-10T08:02:15.322Z,20.02
2019-06-10T08:03:15.280Z,20.08
2019-06-10T08:04:15.271Z,20.04
2019-06-10T08:05:15.287Z,20.05
2019-06-10T08:06:15.276Z,20.01
2019-06-10T08:07:15.266Z,20.07
2019-06-10T08:08:15.225Z,20.10
2019-06-10T08:09:15.217Z,20.13
2019-06-10T08:10:15.203Z,20.20
2019-06-10T08:11:15.191Z,20.15
2019-06-10T08:12:15.299Z,20.30
2019-06-10T08:13:15.168Z,20.27
2019-06-10T08:14:15.159Z,20.34
2019-06-10T08:15:15.147Z,20.30
2019-06-10T08:16:15.138Z,20.48
2019-06-10T08:17:15.162Z,20.44
2019-06-10T08:18:15.116Z,20.41
2019-06-10T08:19:30.048Z,20.58
2019-06-10T08:20:16.093Z,20.46
2019-06-10T08:21:15.082Z,20.42
2019-06-10T08:22:29.882Z,20.44
2019-06-10T08:23:16.058Z,20.58
2019-06-10T08:24:15.048Z,20.61
2019-06-10T08:25:15.038Z,20.71
2019-06-10T08:26:15.029Z,20.72
2019-06-10T08:27:15.016Z,20.71
2019-06-10T08:28:15.035Z,20.69
2019-06-10T08:29:14.994Z,20.81
2019-06-10T08:30:22.525Z,20.76
2019-06-10T08:31:15.971Z,20.85
2019-06-10T08:32:14.963Z,20.85
2019-06-10T08:33:14.981Z,20.90
2019-06-10T08:34:14.938Z,20.94
2019-06-10T08:35:14.927Z,20.98
2019-06-10T08:36:14.916Z,20.96
2019-06-10T08:37:14.915Z,21.06
2019-06-10T08:38:14.929Z,21.03
2019-06-10T08:39:15.950Z,21.21
2019-06-10T08:40:14.874Z,21.16
2019-06-10T08:41:14.861Z,21.22
2019-06-10T08:42:14.849Z,21.22
2019-06-10T08:43:14.871Z,21.24
2019-06-10T08:44:14.829Z,21.19
2019-06-10T08:45:14.815Z,21.16
2019-06-10T08:46:14.806Z,21.16
2019-06-10T08:47:14.797Z,21.19
2019-06-10T08:48:14.816Z,21.19
2019-06-10T08:49:14.771Z,21.21
2019-06-10T08:50:14.760Z,21.24
2019-06-10T08:51:14.750Z,21.43
2019-06-10T08:52:14.743Z,21.45
2019-06-10T08:53:18.133Z,21.40
2019-06-10T08:54:14.716Z,21.42
2019-06-10T08:55:14.708Z,21.42
2019-06-10T08:56:14.694Z,21.58
2019-06-10T08:57:14.688Z,21.63
2019-06-10T08:58:14.704Z,21.68
2019-06-10T08:59:14.661Z,21.82
2019-06-10T09:00:16.252Z,21.90
2019-06-10T09:01:14.645Z,21.89
2019-06-10T09:02:14.629Z,21.83
2019-06-10T09:03:14.649Z,21.96
2019-06-10T09:04:14.622Z,21.86
2019-06-10T09:05:14.595Z,21.99
2019-06-10T09:06:14.583Z,22.01
2019-06-10T09:07:14.572Z,21.94
2019-06-10T09:08:14.591Z,21.98
2019-06-10T09:09:14.550Z,21.94
2019-06-10T09:10:14.538Z,22.04
2019-06-10T09:11:14.528Z,22.01
2019-06-10T09:12:28.704Z,21.99
2019-06-10T09:13:15.506Z,22.01
2019-06-10T09:14:14.526Z,22.09
2019-06-10T09:15:14.486Z,22.19
2019-06-10T09:16:19.201Z,22.20
2019-06-10T09:17:15.460Z,22.20
2019-06-10T09:18:19.688Z,22.24
2019-06-10T09:19:15.470Z,22.30
2019-06-10T09:20:14.428Z,22.29
2019-06-10T09:21:14.417Z,22.33
2019-06-10T09:22:14.406Z,22.33
2019-06-10T09:23:21.927Z,22.29
2019-06-10T09:24:15.415Z,22.36
2019-06-10T09:25:14.371Z,22.36
2019-06-10T09:26:14.363Z,22.33
2019-06-10T09:27:14.355Z,22.35
2019-06-10T09:28:14.339Z,22.39
2019-06-10T09:29:14.377Z,22.48
2019-06-10T09:30:14.319Z,22.45
2019-06-10T09:31:14.344Z,22.48
2019-06-10T09:32:14.327Z,22.56
2019-06-10T09:33:14.284Z,22.57
2019-06-10T09:34:14.305Z,22.52
2019-06-10T09:35:14.263Z,22.51
2019-06-10T09:36:14.256Z,22.49
2019-06-10T09:37:14.258Z,22.60
2019-06-10T09:38:14.289Z,22.54
2019-06-10T09:39:14.251Z,22.66
2019-06-10T09:40:14.207Z,22.70
2019-06-10T09:41:14.384Z,22.79
2019-06-10T09:42:14.654Z,22.78
2019-06-10T09:43:14.178Z,22.84
2019-06-10T09:44:14.195Z,22.81
2019-06-10T09:45:14.154Z,22.93
2019-06-10T09:46:14.145Z,22.99
2019-06-10T09:47:14.642Z,23.00
2019-06-10T09:48:14.120Z,23.07
2019-06-10T09:49:14.141Z,23.14
2019-06-10T09:50:14.106Z,23.14
2019-06-10T09:51:14.086Z,23.16
2019-06-10T09:52:14.075Z,23.23
2019-06-10T09:53:29.035Z,23.35
2019-06-10T09:54:15.084Z,23.31
2019-06-10T09:55:14.043Z,23.47
2019-06-10T09:56:14.033Z,23.57
2019-06-10T09:57:14.020Z,23.56
2019-06-10T09:58:14.011Z,23.67
2019-06-10T09:59:14.034Z,23.74
2019-06-10T10:00:13.986Z,23.77
2019-06-10T10:01:13.976Z,23.77
2019-06-10T10:02:13.968Z,23.86
2019-06-10T10:03:13.954Z,23.92
2019-06-10T10:04:13.975Z,23.93
2019-06-10T10:05:13.932Z,24.02
2019-06-10T10:06:15.604Z,24.04
2019-06-10T10:07:13.909Z,24.16
2019-06-10T10:08:13.899Z,24.29
2019-06-10T10:09:13.893Z,24.30
2019-06-10T10:10:13.909Z,24.44
2019-06-10T10:11:13.898Z,24.49
2019-06-10T10:12:13.855Z,24.59
2019-06-10T10:13:13.859Z,24.66
2019-06-10T10:14:15.905Z,24.74
2019-06-10T10:15:26.419Z,24.87
2019-06-10T10:16:14.812Z,24.86
2019-06-10T10:17:13.801Z,24.92
2019-06-10T10:18:14.042Z,24.90
2019-06-10T10:19:13.808Z,24.97
2019-06-10T10:20:14.149Z,24.94
2019-06-10T10:21:13.757Z,24.97
2019-06-10T10:22:14.099Z,25.08
2019-06-10T10:23:13.839Z,25.09
2019-06-10T10:24:15.128Z,25.20
2019-06-10T10:25:14.481Z,25.30
2019-06-10T10:26:14.219Z,25.35
2019-06-10T10:27:13.694Z,25.31
2019-06-10T10:28:13.680Z,25.38
2019-06-10T10:29:13.690Z,25.56
2019-06-10T10:30:13.691Z,25.51
2019-06-10T10:31:13.645Z,25.71
2019-06-10T10:32:13.638Z,25.74
2019-06-10T10:33:13.626Z,25.75
2019-06-10T10:34:13.706Z,25.67
2019-06-10T10:35:13.635Z,25.49
2019-06-10T10:36:14.272Z,25.46
2019-06-10T10:37:13.581Z,25.60
2019-06-10T10:38:14.445Z,25.76
2019-06-10T10:39:14.067Z,25.81
2019-06-10T10:40:13.582Z,25.97
2019-06-10T10:41:13.702Z,26.11
2019-06-10T10:42:13.528Z,26.09
2019-06-10T10:43:25.283Z,26.19
2019-06-10T10:44:14.820Z,26.32
2019-06-10T10:45:13.945Z,26.31
2019-06-10T10:46:14.154Z,26.32
2019-06-10T10:47:13.475Z,26.47
2019-06-10T10:48:14.072Z,26.56
2019-06-10T10:49:14.262Z,26.64
2019-06-10T10:50:14.067Z,26.69
2019-06-10T10:51:13.492Z,26.68
2019-06-10T10:52:13.463Z,26.65
2019-06-10T10:53:13.409Z,26.65
2019-06-10T10:54:27.906Z,26.68
2019-06-10T10:55:14.384Z,26.56
2019-06-10T10:56:13.408Z,26.51
2019-06-10T10:57:13.365Z,26.51
2019-06-10T10:58:13.355Z,26.31
2019-06-10T10:59:13.484Z,26.34
2019-06-10T11:00:13.331Z,26.27
2019-06-10T11:01:14.993Z,26.28
2019-06-10T11:02:13.307Z,26.31
2019-06-10T11:03:13.490Z,26.17
2019-06-10T11:04:13.518Z,26.12
2019-06-10T11:05:13.275Z,26.08
2019-06-10T11:06:13.351Z,26.20
2019-06-10T11:07:13.254Z,26.17
2019-06-10T11:08:14.340Z,26.19
2019-06-10T11:09:13.282Z,26.21
2019-06-10T11:10:13.220Z,26.19
2019-06-10T11:11:13.697Z,26.35
2019-06-10T11:12:13.199Z,26.42
2019-06-10T11:13:13.189Z,26.29
2019-06-10T11:14:15.057Z,26.36
2019-06-10T11:15:13.780Z,26.31
2019-06-10T11:16:13.514Z,26.29
2019-06-10T11:17:13.172Z,26.31
2019-06-10T11:18:13.132Z,26.31
2019-06-10T11:19:13.150Z,26.46
2019-06-10T11:20:13.713Z,26.42
2019-06-10T11:21:13.497Z,26.49
2019-06-10T11:22:13.119Z,26.42
2019-06-10T11:23:13.075Z,26.19
2019-06-10T11:24:15.852Z,26.17
2019-06-10T11:25:14.051Z,26.16
2019-06-10T11:26:13.283Z,26.27
2019-06-10T11:27:13.062Z,26.36
2019-06-10T11:28:13.020Z,26.31
2019-06-10T11:29:13.007Z,26.28
2019-06-10T11:30:12.996Z,26.19
2019-06-10T11:31:13.766Z,26.23
2019-06-10T11:32:13.004Z,26.20
2019-06-10T11:33:12.963Z,26.17
2019-06-10T11:34:12.951Z,26.13
2019-06-10T11:35:12.941Z,26.13
2019-06-10T11:36:13.631Z,25.98
2019-06-10T11:37:12.953Z,25.97
2019-06-10T11:38:12.972Z,25.96
2019-06-10T11:39:13.444Z,26.03
2019-06-10T11:40:13.620Z,26.00
2019-06-10T11:41:13.750Z,25.89
2019-06-10T11:42:13.273Z,25.79
2019-06-10T11:43:13.178Z,25.83
2019-06-10T11:44:12.847Z,25.76
2019-06-10T11:45:12.829Z,25.67
2019-06-10T11:46:13.827Z,25.59
2019-06-10T11:47:13.241Z,25.57
2019-06-10T11:48:13.033Z,25.53
2019-06-10T11:49:12.789Z,25.60
2019-06-10T11:50:12.775Z,25.49
2019-06-10T11:51:13.258Z,25.49
2019-06-10T11:52:12.785Z,25.39
2019-06-10T11:53:12.926Z,25.31
2019-06-10T11:54:13.016Z,25.38
2019-06-10T11:55:18.406Z,25.34
2019-06-10T11:56:14.133Z,25.36
2019-06-10T11:57:13.235Z,25.36
2019-06-10T11:58:12.690Z,25.24
2019-06-10T11:59:13.377Z,25.26
2019-06-10T12:00:14.792Z,25.22
2019-06-10T12:01:13.400Z,25.22
2019-06-10T12:02:13.343Z,25.16
2019-06-10T12:03:13.127Z,25.04
2019-06-10T12:04:13.026Z,25.09
2019-06-10T12:05:13.136Z,25.02
2019-06-10T12:06:13.588Z,25.01
2019-06-10T12:07:12.976Z,24.90
2019-06-10T12:08:13.207Z,25.02
2019-06-10T12:09:13.712Z,25.02
2019-06-10T12:10:12.959Z,24.99
2019-06-10T12:11:12.985Z,24.99
2019-06-10T12:12:13.506Z,24.94
2019-06-10T12:13:13.391Z,24.90
2019-06-10T12:14:12.999Z,24.89
2019-06-10T12:15:12.510Z,24.86
2019-06-10T12:17:24.790Z,24.83
2019-06-10T12:18:13.487Z,24.83
2019-06-10T12:19:12.881Z,24.68
2019-06-10T12:20:13.344Z,24.67
2019-06-10T12:21:13.376Z,24.63
2019-06-10T12:22:13.423Z,24.53
2019-06-10T12:23:12.807Z,24.56
2019-06-10T12:24:12.837Z,24.46
2019-06-10T12:25:35.528Z,24.46
2019-06-10T12:26:13.388Z,24.44
2019-06-10T12:27:13.104Z,24.31
2019-06-10T12:28:12.955Z,24.39
2019-06-10T12:29:12.621Z,24.34
2019-06-10T12:30:13.257Z,24.41
2019-06-10T12:31:13.524Z,24.42
2019-06-10T12:32:13.531Z,24.51
2019-06-10T12:33:19.959Z,24.60
2019-06-10T12:34:13.304Z,24.67
2019-06-10T12:35:13.738Z,24.74
2019-06-10T12:36:12.973Z,24.94
2019-06-10T12:37:15.827Z,24.98
2019-06-10T12:38:13.808Z,25.07
2019-06-10T12:39:15.675Z,25.19
2019-06-10T12:40:14.012Z,25.30
2019-06-10T12:41:13.978Z,25.36
2019-06-10T12:42:14.264Z,25.41
2019-06-10T12:43:12.764Z,25.49
2019-06-10T12:44:13.039Z,25.53
2019-06-10T12:45:12.775Z,25.51
2019-06-10T12:46:12.946Z,25.53
2019-06-10T12:47:12.159Z,25.60
2019-06-10T12:48:14.003Z,25.66
2019-06-10T12:49:13.131Z,25.61
2019-06-10T12:50:12.771Z,25.53
2019-06-10T12:51:13.542Z,25.53
2019-06-10T12:52:12.669Z,25.45
2019-06-10T12:53:12.635Z,25.42